createdAt,value
2018-04-26T00:01:05.544Z,3.67
2018-04-26T00:03:33.136Z,3.30
2018-04-26T00:06:00.656Z,5.10
2018-04-26T00:08:28.176Z,3.80
2018-04-26T00:10:55.713Z,3.37
2018-04-26T00:13:23.225Z,3.20
2018-04-26T00:15:50.756Z,3.57
2018-04-26T00:18:18.287Z,3.10
2018-04-26T00:20:45.800Z,3.50
2018-04-26T00:23:13.344Z,5.90
2018-04-26T00:25:40.903Z,4.70
2018-04-26T00:28:08.456Z,4.07
2018-04-26T00:30:35.985Z,4.03
2018-04-26T00:33:03.546Z,8.17
2018-04-26T00:35:31.104Z,3.33
2018-04-26T00:37:58.631Z,6.87
2018-04-26T00:40:26.189Z,3.67
2018-04-26T00:42:53.749Z,4.87
2018-04-26T00:45:21.329Z,4.57
2018-04-26T00:47:48.823Z,6.03
2018-04-26T00:50:16.352Z,5.00
2018-04-26T00:52:43.872Z,4.77
2018-04-26T00:55:11.395Z,5.17
2018-04-26T00:57:38.904Z,4.63
2018-04-26T01:00:06.431Z,6.27
2018-04-26T01:02:33.961Z,4.10
2018-04-26T01:05:01.493Z,6.43
2018-04-26T01:07:29.011Z,7.83
2018-04-26T01:09:56.528Z,6.27
2018-04-26T01:12:24.046Z,5.90
2018-04-26T01:14:51.573Z,7.60
2018-04-26T01:17:19.087Z,6.13
2018-04-26T01:19:46.604Z,6.50
2018-04-26T01:22:14.130Z,5.53
2018-04-26T01:24:41.648Z,6.23
2018-04-26T01:27:09.177Z,5.03
2018-04-26T01:29:36.709Z,5.63
2018-04-26T01:32:04.223Z,4.60
2018-04-26T01:34:31.730Z,7.27
2018-04-26T01:37:11.092Z,5.70
2018-04-26T01:39:38.606Z,5.70
2018-04-26T01:42:06.128Z,7.07
2018-04-26T01:44:33.664Z,5.60
2018-04-26T01:47:01.221Z,6.33
2018-04-26T01:49:28.733Z,5.97
2018-04-26T01:51:56.249Z,8.13
2018-04-26T01:54:23.776Z,6.93
2018-04-26T01:56:51.299Z,7.23
2018-04-26T01:59:18.828Z,7.13
2018-04-26T02:01:46.352Z,5.70
2018-04-26T02:04:13.887Z,6.87
2018-04-26T02:06:41.399Z,4.90
2018-04-26T02:09:08.915Z,8.93
2018-04-26T02:11:36.436Z,5.47
2018-04-26T02:14:03.971Z,6.00
2018-04-26T02:16:31.481Z,6.27
2018-04-26T02:18:58.996Z,6.00
2018-04-26T02:21:26.526Z,6.77
2018-04-26T02:23:54.059Z,5.50
2018-04-26T02:26:21.594Z,7.03
2018-04-26T02:28:49.103Z,7.80
2018-04-26T02:31:16.634Z,6.00
2018-04-26T02:33:44.150Z,6.63
2018-04-26T02:36:11.675Z,5.77
2018-04-26T02:38:39.195Z,6.47
2018-04-26T02:41:06.710Z,5.73
2018-04-26T02:43:34.261Z,7.53
2018-04-26T02:46:01.787Z,7.60
2018-04-26T02:48:29.303Z,6.70
2018-04-26T02:50:56.835Z,7.23
2018-04-26T02:53:24.349Z,6.90
2018-04-26T02:55:51.866Z,7.40
2018-04-26T02:58:19.412Z,5.90
2018-04-26T03:00:46.927Z,7.00
2018-04-26T03:03:14.482Z,7.93
2018-04-26T03:05:42.005Z,5.83
2018-04-26T03:08:09.584Z,6.33
2018-04-26T03:10:37.066Z,7.30
2018-04-26T03:13:04.581Z,6.17
2018-04-26T03:15:32.129Z,7.83
2018-04-26T03:17:59.661Z,7.73
2018-04-26T03:20:27.191Z,6.67
2018-04-26T03:22:54.706Z,7.07
2018-04-26T03:25:22.235Z,6.27
2018-04-26T03:27:49.753Z,6.70
2018-04-26T03:30:17.282Z,7.60
2018-04-26T03:32:44.811Z,8.93
2018-04-26T03:35:12.328Z,7.33
2018-04-26T03:37:39.855Z,7.13
2018-04-26T03:40:07.373Z,8.93
2018-04-26T03:42:34.889Z,8.20
2018-04-26T03:45:02.409Z,7.70
2018-04-26T03:47:29.924Z,7.23
2018-04-26T03:49:57.557Z,11.70
2018-04-26T03:52:25.089Z,9.53
2018-04-26T03:54:52.674Z,7.77
2018-04-26T03:57:20.223Z,9.60
2018-04-26T03:59:59.571Z,8.30
2018-04-26T04:02:38.958Z,11.73
2018-04-26T04:05:29.333Z,8.83
2018-04-26T04:07:56.856Z,9.50
2018-04-26T04:10:24.410Z,9.23
2018-04-26T04:12:51.926Z,10.53
2018-04-26T04:15:19.444Z,10.63
2018-04-26T04:17:47.002Z,9.37
2018-04-26T04:20:14.548Z,10.17
2018-04-26T04:22:42.088Z,9.53
2018-04-26T04:25:09.664Z,10.23
2018-04-26T04:27:37.237Z,11.43
2018-04-26T04:30:04.752Z,9.33
2018-04-26T04:32:32.265Z,9.40
2018-04-26T04:34:59.791Z,12.73
2018-04-26T04:37:27.300Z,9.53
2018-04-26T04:39:54.843Z,10.77
2018-04-26T04:42:22.350Z,8.23
2018-04-26T04:44:49.882Z,9.90
2018-04-26T04:47:17.504Z,11.13
2018-04-26T04:49:45.078Z,8.37
2018-04-26T04:52:12.604Z,8.70
2018-04-26T04:54:40.134Z,7.93
2018-04-26T04:57:07.650Z,10.10
2018-04-26T04:59:35.175Z,11.80
2018-04-26T05:02:02.777Z,10.50
2018-04-26T05:04:30.262Z,10.13
2018-04-26T05:06:57.891Z,10.33
2018-04-26T05:09:25.420Z,9.93
2018-04-26T05:11:53.016Z,12.00
2018-04-26T05:14:20.535Z,10.73
2018-04-26T05:16:48.135Z,11.77
2018-04-26T05:19:15.662Z,9.73
2018-04-26T05:21:43.174Z,14.07
2018-04-26T05:24:10.697Z,12.70
2018-04-26T05:26:38.208Z,11.97
2018-04-26T05:29:05.731Z,19.03
2018-04-26T05:31:33.277Z,18.33
2018-04-26T05:34:00.845Z,21.87
2018-04-26T05:36:28.410Z,11.03
2018-04-26T05:38:55.933Z,13.17
2018-04-26T05:41:23.460Z,14.40
2018-04-26T05:43:50.982Z,11.50
2018-04-26T05:46:18.514Z,13.43
2018-04-26T05:48:46.073Z,13.50
2018-04-26T05:51:13.597Z,14.47
2018-04-26T05:53:41.116Z,12.77
2018-04-26T05:56:08.737Z,15.17
2018-04-26T05:58:36.245Z,14.07
2018-04-26T06:01:03.809Z,13.67
2018-04-26T06:03:31.374Z,13.60
2018-04-26T06:05:58.894Z,25.63
2018-04-26T06:08:26.425Z,15.73
2018-04-26T06:10:54.046Z,17.63
2018-04-26T06:13:21.607Z,13.77
2018-04-26T06:15:49.135Z,16.23
2018-04-26T06:18:16.728Z,18.10
2018-04-26T06:20:44.246Z,11.93
2018-04-26T06:23:11.772Z,13.27
2018-04-26T06:25:39.303Z,12.73
2018-04-26T06:28:06.827Z,14.07
2018-04-26T06:30:34.364Z,14.10
2018-04-26T06:33:01.907Z,13.23
2018-04-26T06:35:29.548Z,15.47
2018-04-26T06:37:57.089Z,13.73
2018-04-26T06:40:24.625Z,14.33
2018-04-26T06:42:52.149Z,12.97
2018-04-26T06:45:19.683Z,13.47
2018-04-26T06:47:47.331Z,14.27
2018-04-26T06:50:14.904Z,16.13
2018-04-26T06:52:42.423Z,13.37
2018-04-26T06:55:09.955Z,15.60
2018-04-26T06:57:37.481Z,14.57
2018-04-26T07:00:05.013Z,14.10
2018-04-26T07:02:32.529Z,16.20
2018-04-26T07:05:00.163Z,15.87
2018-04-26T07:07:27.687Z,18.77
2018-04-26T07:09:55.263Z,14.27
2018-04-26T07:12:22.839Z,15.90
2018-04-26T07:14:50.383Z,16.30
2018-04-26T07:17:17.918Z,15.13
2018-04-26T07:19:45.492Z,14.77
2018-04-26T07:22:13.121Z,14.80
2018-04-26T07:24:40.738Z,15.33
2018-04-26T07:27:08.265Z,16.87
2018-04-26T07:29:35.787Z,18.90
2018-04-26T07:32:03.324Z,17.63
2018-04-26T07:34:30.850Z,18.67
2018-04-26T07:36:58.364Z,13.40
2018-04-26T07:39:25.894Z,12.30
2018-04-26T07:41:53.991Z,13.03
2018-04-26T07:44:21.513Z,11.70
2018-04-26T07:46:49.044Z,13.67
2018-04-26T07:49:16.567Z,15.10
2018-04-26T07:51:44.078Z,14.87
2018-04-26T07:54:11.597Z,10.83
2018-04-26T07:56:39.223Z,13.57
2018-04-26T07:59:06.754Z,14.13
2018-04-26T08:01:34.344Z,15.33
2018-04-26T08:04:01.828Z,13.80
2018-04-26T08:06:29.364Z,12.80
2018-04-26T08:08:56.892Z,15.17
2018-04-26T08:11:24.416Z,13.77
2018-04-26T08:13:51.941Z,15.70
2018-04-26T08:16:19.456Z,15.07
2018-04-26T08:18:47.057Z,21.73
2018-04-26T08:21:14.619Z,16.23
2018-04-26T08:23:42.150Z,14.87
2018-04-26T08:26:10.585Z,14.17
2018-04-26T08:28:38.117Z,19.57
2018-04-26T08:31:05.637Z,18.70
2018-04-26T08:33:33.172Z,20.07
2018-04-26T08:36:00.704Z,25.10
2018-04-26T08:38:28.223Z,16.20
2018-04-26T08:40:55.757Z,13.63
2018-04-26T08:43:23.291Z,15.03
2018-04-26T08:45:50.820Z,22.13
2018-04-26T08:48:18.347Z,17.33
2018-04-26T08:50:45.882Z,18.67
2018-04-26T08:53:13.491Z,17.87
2018-04-26T08:55:41.025Z,18.53
2018-04-26T08:58:08.560Z,17.90
2018-04-26T09:00:36.096Z,15.20
2018-04-26T09:03:03.615Z,16.97
2018-04-26T09:05:31.136Z,20.43
2018-04-26T09:07:58.767Z,16.33
2018-04-26T09:10:26.295Z,10.90
2018-04-26T09:12:53.892Z,9.57
2018-04-26T09:15:21.418Z,9.90
2018-04-26T09:17:49.012Z,10.63
2018-04-26T09:20:16.539Z,7.47
2018-04-26T09:22:44.099Z,7.30
2018-04-26T09:25:11.628Z,11.63
2018-04-26T09:27:39.183Z,6.57
2018-04-26T09:30:06.744Z,8.63
2018-04-26T09:32:34.256Z,6.20
2018-04-26T09:35:01.780Z,6.37
2018-04-26T09:37:29.319Z,4.77
2018-04-26T09:39:56.846Z,4.13
2018-04-26T09:42:24.376Z,3.50
2018-04-26T09:44:51.909Z,4.43
2018-04-26T09:47:19.432Z,3.87
2018-04-26T09:49:46.968Z,3.17
2018-04-26T09:52:14.486Z,4.43
2018-04-26T09:54:42.101Z,3.77
2018-04-26T09:57:09.632Z,3.00
2018-04-26T09:59:37.193Z,3.77
2018-04-26T10:02:04.714Z,3.73
2018-04-26T10:04:37.982Z,2.67
2018-04-26T10:07:05.519Z,7.03
2018-04-26T10:09:33.113Z,2.33
2018-04-26T10:12:00.625Z,2.97
2018-04-26T10:14:28.139Z,1.50
2018-04-26T10:16:55.681Z,3.03
2018-04-26T10:19:23.203Z,3.13
2018-04-26T10:21:50.718Z,1.80
2018-04-26T10:24:18.251Z,3.20
2018-04-26T10:26:45.812Z,2.70
2018-04-26T10:29:13.335Z,4.70
2018-04-26T10:31:40.852Z,2.30
2018-04-26T10:34:08.373Z,3.57
2018-04-26T10:36:35.904Z,2.00
2018-04-26T10:39:03.435Z,2.20
2018-04-26T10:41:30.947Z,1.83
2018-04-26T10:43:58.527Z,2.10
2018-04-26T10:46:26.053Z,2.03
2018-04-26T10:48:53.584Z,2.63
2018-04-26T10:51:21.132Z,2.53
2018-04-26T10:53:48.666Z,4.23
2018-04-26T10:56:16.223Z,4.57
2018-04-26T10:58:43.782Z,2.43
2018-04-26T11:01:11.342Z,1.87
2018-04-26T11:03:38.856Z,2.50
2018-04-26T11:06:06.387Z,1.97
2018-04-26T11:08:34.018Z,1.37
2018-04-26T11:11:01.540Z,3.43
2018-04-26T11:13:29.069Z,2.33
2018-04-26T11:15:56.600Z,2.93
2018-04-26T11:18:24.135Z,2.30
2018-04-26T11:20:51.638Z,2.13
2018-04-26T11:23:19.161Z,1.33
2018-04-26T11:25:46.710Z,3.10
2018-04-26T11:28:14.219Z,2.47
2018-04-26T11:30:41.722Z,3.10
2018-04-26T11:33:09.255Z,4.20
2018-04-26T11:35:36.781Z,1.93
2018-04-26T11:38:04.308Z,1.80
2018-04-26T11:40:31.889Z,2.90
2018-04-26T11:42:59.413Z,2.73
2018-04-26T11:45:26.931Z,2.20
2018-04-26T11:47:54.444Z,2.13
2018-04-26T11:50:22.001Z,3.13
2018-04-26T11:52:49.532Z,4.57
2018-04-26T11:55:17.151Z,2.37
2018-04-26T11:57:44.684Z,4.83
2018-04-26T12:00:12.207Z,5.60
2018-04-26T12:02:39.821Z,2.67
2018-04-26T12:05:07.292Z,3.23
2018-04-26T12:07:34.830Z,3.50
2018-04-26T12:10:02.432Z,2.53
2018-04-26T12:12:29.919Z,3.57
2018-04-26T12:14:57.447Z,4.07
2018-04-26T12:17:24.962Z,2.40
2018-04-26T12:19:52.554Z,3.10
2018-04-26T12:22:20.064Z,6.73
2018-04-26T12:24:47.589Z,1.90
2018-04-26T12:27:15.125Z,3.10
2018-04-26T12:29:42.647Z,2.63
2018-04-26T12:32:10.167Z,2.13
2018-04-26T12:34:37.687Z,7.73
2018-04-26T12:37:05.226Z,1.90
2018-04-26T12:39:32.836Z,2.63
2018-04-26T12:42:00.511Z,2.03
2018-04-26T12:44:28.163Z,3.33
2018-04-26T12:46:55.672Z,2.87
2018-04-26T12:49:23.269Z,5.17
2018-04-26T12:51:50.780Z,2.83
2018-04-26T12:54:18.319Z,5.97
2018-04-26T12:56:45.949Z,2.97
2018-04-26T12:59:13.464Z,3.53
2018-04-26T13:01:41.063Z,4.50
2018-04-26T13:04:08.581Z,3.33
2018-04-26T13:06:36.181Z,6.03
2018-04-26T13:09:03.700Z,2.30
2018-04-26T13:11:31.226Z,4.13
2018-04-26T13:13:58.750Z,3.07
2018-04-26T13:16:26.311Z,2.30
2018-04-26T13:18:53.827Z,1.97
2018-04-26T13:21:21.471Z,1.87
2018-04-26T13:23:48.971Z,2.53
2018-04-26T13:26:16.538Z,3.43
2018-04-26T13:28:44.119Z,3.80
2018-04-26T13:31:11.640Z,9.77
2018-04-26T13:33:39.170Z,4.37
2018-04-26T13:36:06.688Z,3.17
2018-04-26T13:38:34.207Z,3.70
2018-04-26T13:41:01.820Z,3.70
2018-04-26T13:43:29.384Z,2.40
2018-04-26T13:45:56.940Z,2.50
2018-04-26T13:48:24.467Z,2.10
2018-04-26T13:50:52.055Z,2.57
2018-04-26T13:53:19.645Z,4.23
2018-04-26T13:55:47.175Z,1.93
2018-04-26T13:58:14.691Z,2.13
2018-04-26T14:00:42.272Z,2.77
2018-04-26T14:03:09.824Z,2.17
2018-04-26T14:05:37.387Z,2.27
2018-04-26T14:08:04.909Z,4.67
2018-04-26T14:10:32.541Z,2.33
2018-04-26T14:13:00.063Z,2.00
2018-04-26T14:15:27.591Z,1.53
2018-04-26T14:17:55.122Z,3.93
2018-04-26T14:20:22.644Z,1.23
2018-04-26T14:22:50.193Z,1.60
2018-04-26T14:25:17.735Z,3.70
2018-04-26T14:27:45.258Z,2.27
2018-04-26T14:30:12.799Z,2.57
2018-04-26T14:32:40.316Z,4.07
2018-04-26T14:35:07.878Z,1.53
2018-04-26T14:37:35.413Z,1.33
2018-04-26T14:40:02.949Z,1.70
2018-04-26T14:42:30.514Z,1.90
2018-04-26T14:44:58.076Z,3.27
2018-04-26T14:47:25.635Z,3.43
2018-04-26T14:49:53.159Z,1.40
2018-04-26T14:52:20.735Z,2.07
2018-04-26T14:54:48.262Z,1.17
2018-04-26T14:57:15.803Z,2.13
2018-04-26T14:59:43.332Z,1.67
2018-04-26T15:02:10.890Z,2.80
2018-04-26T15:04:38.418Z,3.30
2018-04-26T15:07:05.935Z,2.07
2018-04-26T15:09:33.465Z,2.57
2018-04-26T15:12:00.976Z,3.07
2018-04-26T15:14:28.513Z,3.20
2018-04-26T15:16:56.027Z,3.70
2018-04-26T15:19:23.555Z,3.63
2018-04-26T15:21:51.108Z,2.63
2018-04-26T15:24:18.624Z,4.93
2018-04-26T15:26:46.146Z,4.53
2018-04-26T15:29:13.670Z,3.40
2018-04-26T15:31:41.186Z,3.33
2018-04-26T15:34:08.756Z,2.70
2018-04-26T15:36:36.275Z,4.20
2018-04-26T15:39:03.800Z,3.27
2018-04-26T15:41:31.335Z,2.17
2018-04-26T15:43:58.899Z,3.60
2018-04-26T15:46:26.455Z,2.60
2018-04-26T15:48:54.008Z,3.97
2018-04-26T15:51:21.541Z,4.40
2018-04-26T15:54:01.088Z,2.50
2018-04-26T15:56:46.168Z,4.07
2018-04-26T15:59:25.443Z,3.03
2018-04-26T16:02:31.283Z,4.37
2018-04-26T16:05:16.515Z,2.87
2018-04-26T16:08:01.734Z,5.93
2018-04-26T16:10:46.809Z,3.20
2018-04-26T16:13:31.960Z,2.60
2018-04-26T16:16:17.111Z,2.20
2018-04-26T16:18:56.379Z,2.53
2018-04-26T16:21:35.771Z,3.57
2018-04-26T16:24:32.768Z,3.77
2018-04-26T16:27:17.805Z,2.77
2018-04-26T16:29:57.272Z,5.70
2018-04-26T16:32:36.741Z,3.00
2018-04-26T16:35:21.071Z,3.80
2018-04-26T16:38:06.318Z,2.50
2018-04-26T16:40:33.832Z,2.57
2018-04-26T16:43:01.440Z,3.77
2018-04-26T16:45:28.896Z,2.23
2018-04-26T16:47:56.415Z,4.00
2018-04-26T16:50:23.927Z,3.77
2018-04-26T16:52:51.450Z,1.80
2018-04-26T16:55:19.060Z,3.07
2018-04-26T16:57:46.571Z,2.87
2018-04-26T17:00:14.097Z,2.60
2018-04-26T17:02:41.612Z,2.93
2018-04-26T17:05:09.198Z,2.83
2018-04-26T17:07:36.861Z,4.57
2018-04-26T17:10:04.394Z,5.03
2018-04-26T17:12:31.978Z,2.70
2018-04-26T17:14:59.503Z,2.73
2018-04-26T17:17:27.034Z,3.37
2018-04-26T17:19:54.557Z,2.97
2018-04-26T17:22:22.229Z,4.23
2018-04-26T17:24:49.881Z,3.60
2018-04-26T17:27:17.409Z,3.57
2018-04-26T17:29:44.936Z,3.57
2018-04-26T17:32:12.564Z,3.70
2018-04-26T17:34:40.095Z,2.40
2018-04-26T17:37:07.623Z,2.93
2018-04-26T17:39:35.243Z,6.83
2018-04-26T17:42:02.787Z,3.03
2018-04-26T17:44:30.361Z,2.97
2018-04-26T17:46:57.880Z,3.20
2018-04-26T17:49:25.427Z,3.47
2018-04-26T17:51:52.979Z,3.00
2018-04-26T17:54:20.532Z,3.37
2018-04-26T17:56:48.057Z,2.90
2018-04-26T17:59:15.600Z,2.83
2018-04-26T18:01:43.137Z,3.13
2018-04-26T18:04:10.663Z,5.00
2018-04-26T18:06:38.192Z,2.37
2018-04-26T18:09:05.707Z,3.43
2018-04-26T18:11:36.098Z,3.83
2018-04-26T18:14:03.633Z,4.00
2018-04-26T18:16:31.171Z,3.60
2018-04-26T18:18:58.699Z,3.93
2018-04-26T18:21:26.227Z,3.17
2018-04-26T18:23:53.761Z,3.60
2018-04-26T18:26:21.288Z,4.37
2018-04-26T18:28:48.820Z,6.93
2018-04-26T18:31:16.349Z,4.00
2018-04-26T18:33:43.886Z,2.67
2018-04-26T18:36:11.405Z,3.50
2018-04-26T18:38:38.929Z,2.53
2018-04-26T18:41:06.463Z,3.77
2018-04-26T18:43:33.984Z,3.80
2018-04-26T18:46:01.522Z,2.30
2018-04-26T18:48:29.071Z,3.13
2018-04-26T18:50:56.591Z,3.30
2018-04-26T18:53:24.120Z,3.87
2018-04-26T18:55:52.745Z,2.63
2018-04-26T18:58:20.272Z,2.40
2018-04-26T19:00:47.805Z,2.37
2018-04-26T19:03:18.227Z,4.97
2018-04-26T19:05:45.756Z,2.73
2018-04-26T19:08:13.265Z,3.63
2018-04-26T19:10:40.783Z,2.40
2018-04-26T19:13:08.323Z,1.67
2018-04-26T19:15:35.922Z,2.23
2018-04-26T19:18:03.397Z,2.03
2018-04-26T19:20:30.916Z,2.27
2018-04-26T19:22:58.433Z,1.60
2018-04-26T19:25:25.961Z,3.53
2018-04-26T19:27:53.486Z,2.10
2018-04-26T19:30:21.031Z,2.87
2018-04-26T19:32:48.562Z,2.33
2018-04-26T19:35:16.094Z,2.00
2018-04-26T19:37:43.626Z,2.60
2018-04-26T19:40:11.477Z,2.57
2018-04-26T19:42:39.044Z,4.37
2018-04-26T19:45:06.561Z,3.70
2018-04-26T19:47:34.076Z,2.83
2018-04-26T19:50:01.596Z,3.67
2018-04-26T19:52:29.116Z,2.73
2018-04-26T19:54:56.648Z,2.43
2018-04-26T19:57:24.165Z,3.00
2018-04-26T19:59:51.695Z,2.83
2018-04-26T20:02:19.224Z,3.43
2018-04-26T20:04:46.740Z,5.90
2018-04-26T20:07:14.273Z,5.83
2018-04-26T20:09:41.803Z,3.70
2018-04-26T20:12:09.316Z,3.73
2018-04-26T20:14:36.852Z,2.93
2018-04-26T20:17:04.374Z,3.80
2018-04-26T20:19:31.889Z,4.40
2018-04-26T20:21:59.393Z,2.17
2018-04-26T20:24:26.957Z,3.80
2018-04-26T20:26:54.473Z,3.93
2018-04-26T20:29:22.004Z,3.03
2018-04-26T20:31:49.535Z,4.90
2018-04-26T20:34:17.048Z,3.27
2018-04-26T20:36:44.582Z,2.93
2018-04-26T20:39:12.108Z,4.77
2018-04-26T20:41:54.548Z,3.77
2018-04-26T20:44:33.967Z,5.17
2018-04-26T20:47:01.526Z,2.97
2018-04-26T20:49:29.034Z,2.30
2018-04-26T20:51:56.562Z,4.97
2018-04-26T20:54:24.091Z,4.23
2018-04-26T20:56:51.609Z,4.03
2018-04-26T20:59:19.120Z,3.17
2018-04-26T21:01:46.628Z,2.83
2018-04-26T21:04:14.156Z,2.87
2018-04-26T21:06:41.694Z,3.00
2018-04-26T21:09:09.207Z,3.80
2018-04-26T21:11:36.733Z,2.93
2018-04-26T21:14:04.281Z,3.37
2018-04-26T21:16:31.781Z,2.83
2018-04-26T21:18:59.313Z,2.77
2018-04-26T21:21:26.841Z,3.13
2018-04-26T21:23:54.363Z,3.63
2018-04-26T21:26:21.888Z,2.40
2018-04-26T21:28:49.406Z,2.50
2018-04-26T21:31:16.937Z,3.10
2018-04-26T21:33:44.472Z,2.63
2018-04-26T21:36:11.983Z,3.67
2018-04-26T21:38:39.498Z,2.80
2018-04-26T21:41:07.012Z,2.70
2018-04-26T21:43:34.532Z,5.37
2018-04-26T21:46:02.060Z,7.07
2018-04-26T21:48:29.592Z,3.00
2018-04-26T21:51:02.792Z,3.37
2018-04-26T21:53:35.859Z,4.10
2018-04-26T21:56:08.907Z,2.00
2018-04-26T21:58:42.003Z,3.80
2018-04-26T22:01:15.153Z,2.83
2018-04-26T22:06:52.640Z,4.07
2018-04-26T22:09:20.231Z,4.37
2018-04-26T22:11:47.808Z,2.90
2018-04-26T22:14:15.281Z,3.57
2018-04-26T22:16:42.792Z,5.43
2018-04-26T22:19:10.299Z,2.43
2018-04-26T22:21:37.808Z,3.80
2018-04-26T22:24:05.325Z,2.57
2018-04-26T22:26:32.858Z,4.70
2018-04-26T22:29:00.384Z,4.20
2018-04-26T22:31:27.895Z,5.17
2018-04-26T22:33:55.421Z,4.80
2018-04-26T22:36:22.933Z,4.23
2018-04-26T22:38:50.473Z,4.37
2018-04-26T22:41:17.977Z,4.80
2018-04-26T22:43:45.499Z,6.53
2018-04-26T22:46:13.025Z,7.03
2018-04-26T22:48:40.537Z,5.87
2018-04-26T22:51:08.069Z,5.57
2018-04-26T22:53:35.575Z,5.83
2018-04-26T22:56:03.091Z,4.97
2018-04-26T22:58:30.606Z,4.47
2018-04-26T23:00:58.122Z,5.20
2018-04-26T23:03:25.643Z,8.03
2018-04-26T23:05:53.159Z,4.47
2018-04-26T23:08:20.683Z,5.13
2018-04-26T23:10:48.189Z,4.23
2018-04-26T23:13:15.695Z,5.60
2018-04-26T23:15:43.207Z,5.63
2018-04-26T23:18:10.721Z,4.67
2018-04-26T23:20:38.248Z,5.27
2018-04-26T23:23:05.764Z,5.83
2018-04-26T23:25:33.289Z,6.47
2018-04-26T23:28:00.803Z,6.33
2018-04-26T23:30:28.319Z,6.13
2018-04-26T23:32:55.847Z,6.60
2018-04-26T23:35:23.372Z,4.77
2018-04-26T23:37:50.888Z,4.80
2018-04-26T23:40:18.399Z,6.23
2018-04-26T23:42:45.908Z,9.03
2018-04-26T23:45:13.424Z,5.00
2018-04-26T23:47:40.935Z,4.27
2018-04-26T23:50:08.458Z,5.70
2018-04-26T23:52:35.972Z,7.17
2018-04-26T23:55:03.500Z,5.30
2018-04-26T23:57:31.022Z,6.43
2018-04-26T23:59:58.527Z,4.30
